Time;durP1;ratioP1;P1;durP2;ratioP2;P2;SDS_P1;SDS_P2;PMS_P1;PMS_P2;Temp;Humidity;BMP_temperature;BMP_pressure;BME280_temperature;BME280_humidity;BME280_pressure;Samples;Min_cycle;Max_cycle;Signal;HPM_P1;HPM_P2
2021/07/06 00:01:25;;;;;;;12.35;11.05;;;18.70;99.90;;;;;;5020479;28;20107;-69
2021/07/06 00:03:53;;;;;;;17.48;12.70;;;18.70;99.90;;;;;;5022280;28;20123;-69
2021/07/06 00:06:20;;;;;;;13.80;12.50;;;18.70;99.90;;;;;;5021260;28;20049;-68
2021/07/06 00:08:48;;;;;;;12.27;11.02;;;18.60;99.90;;;;;;5023684;28;20041;-70
2021/07/06 00:11:16;;;;;;;13.82;12.20;;;18.70;99.90;;;;;;5020746;28;20547;-69
2021/07/06 00:13:43;;;;;;;15.45;13.98;;;18.60;99.90;;;;;;5022878;28;20539;-69
2021/07/06 00:16:10;;;;;;;13.10;11.32;;;18.60;99.90;;;;;;5018076;28;20156;-69
2021/07/06 00:18:37;;;;;;;13.70;12.30;;;18.60;99.90;;;;;;5022556;28;20056;-69
2021/07/06 00:21:04;;;;;;;12.65;11.35;;;18.60;99.90;;;;;;5021376;28;20042;-69
2021/07/06 00:23:31;;;;;;;12.18;11.05;;;18.60;99.90;;;;;;5021100;28;20132;-71
2021/07/06 00:25:58;;;;;;;11.27;10.18;;;18.60;99.90;;;;;;5019689;28;20041;-68
2021/07/06 00:28:25;;;;;;;11.05;9.90;;;18.50;99.90;;;;;;5022638;28;20706;-69
2021/07/06 00:30:53;;;;;;;12.48;11.27;;;18.50;99.90;;;;;;5020652;28;20041;-70
2021/07/06 00:33:20;;;;;;;13.68;12.25;;;18.50;99.90;;;;;;5021965;28;20080;-68
2021/07/06 00:35:47;;;;;;;14.55;11.98;;;18.50;99.90;;;;;;5018864;28;20114;-69
2021/07/06 00:38:14;;;;;;;12.95;11.65;;;18.50;99.90;;;;;;5022202;28;20100;-69
2021/07/06 00:40:41;;;;;;;11.65;10.45;;;18.50;99.90;;;;;;5020709;28;20069;-69
2021/07/06 00:43:08;;;;;;;13.38;10.98;;;18.50;99.90;;;;;;5035369;28;20057;-71
2021/07/06 00:45:35;;;;;;;13.95;11.57;;;18.60;99.90;;;;;;5021973;28;20124;-69
2021/07/06 00:48:02;;;;;;;14.27;10.95;;;18.60;99.90;;;;;;5019839;28;20108;-69
2021/07/06 00:50:29;;;;;;;14.07;12.55;;;18.60;99.90;;;;;;5022828;28;20095;-69
2021/07/06 00:52:56;;;;;;;12.75;11.48;;;18.60;99.90;;;;;;5018723;28;20451;-70
2021/07/06 00:55:23;;;;;;;13.60;12.30;;;18.60;99.90;;;;;;5021930;28;20251;-71
2021/07/06 00:57:50;;;;;;;15.23;12.38;;;18.60;99.90;;;;;;5018588;28;20119;-69
2021/07/06 01:00:20;;;;;;;16.42;13.60;;;18.60;99.90;;;;;;5022096;28;20038;-68
2021/07/06 01:02:47;;;;;;;15.25;11.48;;;18.60;99.90;;;;;;5019908;28;20118;-69
2021/07/06 01:05:18;;;;;;;15.05;13.55;;;18.60;99.90;;;;;;5021736;28;20749;-70
2021/07/06 01:07:45;;;;;;;13.10;11.80;;;18.60;99.90;;;;;;5016315;28;20052;-70
2021/07/06 01:10:14;;;;;;;16.27;11.85;;;18.60;99.90;;;;;;5019711;28;20770;-68
2021/07/06 01:12:43;;;;;;;13.85;11.77;;;18.60;99.90;;;;;;5021208;28;20045;-71
2021/07/06 01:15:13;;;;;;;14.68;13.23;;;18.60;99.90;;;;;;5020733;28;20053;-68
2021/07/06 01:17:40;;;;;;;12.30;11.02;;;18.60;99.90;;;;;;5017782;28;20045;-68
2021/07/06 01:20:16;;;;;;;13.02;11.77;;;18.60;99.90;;;;;;5019140;28;20068;-68
2021/07/06 01:22:44;;;;;;;12.60;11.45;;;18.50;99.90;;;;;;5021926;28;20041;-69
2021/07/06 01:25:12;;;;;;;12.80;10.55;;;18.50;99.90;;;;;;5019148;28;20088;-68
2021/07/06 01:27:41;;;;;;;14.27;12.80;;;18.50;99.90;;;;;;5021839;28;20439;-69
2021/07/06 01:30:12;;;;;;;13.18;11.93;;;18.40;99.90;;;;;;5019575;28;20156;-68
2021/07/06 01:32:44;;;;;;;13.10;11.77;;;18.40;99.90;;;;;;5021385;28;20049;-68
2021/07/06 01:35:13;;;;;;;12.15;11.05;;;18.40;99.90;;;;;;5021519;28;20057;-68
2021/07/06 01:37:58;;;;;;;13.23;11.93;;;18.40;99.90;;;;;;5022787;28;20081;-68
2021/07/06 01:40:28;;;;;;;13.25;11.95;;;18.40;99.90;;;;;;5023797;28;20442;-69
2021/07/06 01:42:56;;;;;;;10.30;8.73;;;18.40;99.90;;;;;;5020915;28;20120;-68
2021/07/06 01:45:26;;;;;;;13.98;11.55;;;18.30;99.90;;;;;;5025418;28;20049;-71
2021/07/06 01:47:59;;;;;;;11.40;10.30;;;18.30;99.90;;;;;;5024381;28;20041;-68
2021/07/06 01:50:31;;;;;;;14.00;10.50;;;18.30;99.90;;;;;;5023700;28;20757;-69
2021/07/06 01:53:03;;;;;;;15.70;11.20;;;18.30;99.90;;;;;;5024083;28;20045;-68
2021/07/06 01:55:33;;;;;;;10.85;9.75;;;18.30;99.90;;;;;;5024080;28;20075;-69
2021/07/06 01:58:04;;;;;;;11.48;9.38;;;18.30;99.90;;;;;;5023769;28;20060;-70
2021/07/06 02:00:34;;;;;;;10.57;9.55;;;18.30;99.90;;;;;;5022887;28;20455;-69
2021/07/06 02:03:02;;;;;;;10.98;9.98;;;18.30;99.90;;;;;;5024722;28;20152;-68
2021/07/06 02:05:33;;;;;;;10.25;9.25;;;18.30;99.90;;;;;;5024184;28;20132;-71
2021/07/06 02:08:00;;;;;;;;;;;18.40;99.90;;;;;;5023301;28;20057;-69
2021/07/06 02:10:28;;;;;;;11.60;10.48;;;18.40;99.90;;;;;;5024833;28;19971;-68
2021/07/06 02:12:57;;;;;;;10.15;9.30;;;18.40;99.90;;;;;;5024725;28;20479;-68
2021/07/06 02:15:25;;;;;;;11.35;9.90;;;18.40;99.90;;;;;;5023785;28;20509;-68
2021/07/06 02:17:53;;;;;;;13.75;9.18;;;18.40;99.90;;;;;;5022382;28;20120;-68
2021/07/06 02:20:21;;;;;;;10.55;8.20;;;18.40;99.90;;;;;;5022432;28;20064;-69
2021/07/06 02:22:49;;;;;;;13.65;9.68;;;18.40;99.90;;;;;;5022708;28;20096;-68
2021/07/06 02:25:18;;;;;;;9.55;8.55;;;18.40;99.90;;;;;;5021519;28;20081;-71
2021/07/06 02:27:47;;;;;;;13.50;10.00;;;18.40;99.90;;;;;;5020275;28;20079;-70
2021/07/06 02:30:19;;;;;;;10.88;9.50;;;18.40;99.90;;;;;;5022247;28;20049;-70
2021/07/06 02:32:47;;;;;;;11.40;10.02;;;18.40;99.90;;;;;;5022551;28;20042;-69
2021/07/06 02:35:15;;;;;;;12.00;9.55;;;18.40;99.90;;;;;;5021597;28;20065;-67
2021/07/06 02:37:44;;;;;;;11.88;10.77;;;18.40;99.90;;;;;;5018443;28;20042;-69
2021/07/06 02:40:13;;;;;;;12.38;11.15;;;18.50;99.90;;;;;;5018623;28;20064;-69
2021/07/06 02:42:41;;;;;;;10.70;9.68;;;18.50;99.90;;;;;;5023245;28;20475;-70
2021/07/06 02:45:10;;;;;;;13.07;11.88;;;18.50;99.90;;;;;;5021108;28;20042;-69
2021/07/06 02:47:37;;;;;;;11.18;10.10;;;18.50;99.90;;;;;;5022017;28;20037;-68
2021/07/06 02:50:06;;;;;;;11.38;10.32;;;18.50;99.90;;;;;;5021045;28;20545;-68
2021/07/06 02:52:34;;;;;;;11.65;10.65;;;18.50;99.90;;;;;;5023335;28;20049;-69
2021/07/06 02:55:01;;;;;;;12.35;11.05;;;18.50;99.90;;;;;;5023983;28;20064;-71
2021/07/06 02:57:39;;;;;;;11.88;10.70;;;18.50;99.90;;;;;;5024147;28;20045;-70
2021/07/06 03:00:21;;;;;;;12.43;11.23;;;18.50;99.90;;;;;;5020918;28;20061;-70
2021/07/06 03:02:50;;;;;;;12.52;11.32;;;18.50;99.90;;;;;;5022979;28;20040;-68
2021/07/06 03:05:19;;;;;;;11.77;10.52;;;18.60;99.90;;;;;;5021492;28;20687;-69
2021/07/06 03:07:47;;;;;;;10.18;9.27;;;18.60;99.90;;;;;;5020100;28;20077;-70
2021/07/06 03:10:18;;;;;;;10.13;9.23;;;18.50;99.90;;;;;;5019116;28;20050;-69
2021/07/06 03:12:45;;;;;;;10.77;9.80;;;18.50;99.90;;;;;;5023592;28;20057;-71
2021/07/06 03:15:15;;;;;;;11.07;10.07;;;18.60;99.90;;;;;;5022770;28;20442;-68
2021/07/06 03:17:43;;;;;;;11.75;10.55;;;18.50;99.90;;;;;;5021867;28;20053;-70
2021/07/06 03:20:13;;;;;;;11.18;10.13;;;18.60;99.90;;;;;;5020907;28;20049;-69
2021/07/06 03:22:40;;;;;;;11.10;10.00;;;18.60;99.90;;;;;;5022874;28;20049;-69
2021/07/06 03:25:09;;;;;;;11.98;10.45;;;18.60;99.90;;;;;;5022192;28;20522;-69
2021/07/06 03:27:37;;;;;;;12.35;11.02;;;18.60;99.90;;;;;;5022934;28;20412;-70
2021/07/06 03:30:09;;;;;;;11.10;10.02;;;18.60;99.90;;;;;;5020570;28;20121;-68
2021/07/06 03:32:36;;;;;;;12.32;11.02;;;18.70;99.90;;;;;;5023078;28;20198;-69
2021/07/06 03:35:04;;;;;;;13.98;12.43;;;18.60;99.90;;;;;;5023038;28;20428;-68
2021/07/06 03:37:31;;;;;;;11.98;10.68;;;18.60;99.90;;;;;;5022416;28;20062;-69
2021/07/06 03:39:58;;;;;;;12.48;11.27;;;18.60;99.90;;;;;;5019975;28;20123;-70
2021/07/06 03:42:25;;;;;;;11.82;10.63;;;18.60;99.90;;;;;;5023169;28;20049;-68
2021/07/06 03:44:52;;;;;;;15.77;12.02;;;18.60;99.90;;;;;;5022100;28;20152;-68
2021/07/06 03:47:19;;;;;;;13.02;11.73;;;18.60;99.90;;;;;;5023281;28;20049;-70
2021/07/06 03:49:46;;;;;;;12.75;11.48;;;18.70;99.90;;;;;;5018549;28;20097;-71
2021/07/06 03:52:13;;;;;;;10.90;9.90;;;18.70;99.90;;;;;;5022533;28;20045;-69
2021/07/06 03:54:40;;;;;;;12.75;11.43;;;18.70;99.90;;;;;;5022574;28;20064;-69
2021/07/06 03:57:07;;;;;;;13.73;12.35;;;18.70;99.90;;;;;;5022912;28;20103;-68
2021/07/06 03:59:34;;;;;;;11.77;10.57;;;18.80;99.90;;;;;;5020605;28;20542;-70
2021/07/06 04:02:00;;;;;;;12.88;11.68;;;18.80;99.90;;;;;;5020154;28;20064;-68
2021/07/06 04:04:28;;;;;;;11.93;10.82;;;18.80;99.90;;;;;;5022812;28;20041;-68
2021/07/06 04:06:55;;;;;;;13.15;11.77;;;18.80;99.90;;;;;;5022235;28;20095;-69
2021/07/06 04:09:22;;;;;;;11.75;10.57;;;18.90;99.90;;;;;;5019372;28;20558;-70
2021/07/06 04:11:49;;;;;;;12.55;11.43;;;18.90;99.90;;;;;;5020080;28;20426;-69
2021/07/06 04:14:16;;;;;;;12.00;10.48;;;18.90;99.90;;;;;;5021177;28;20054;-69
2021/07/06 04:16:43;;;;;;;13.02;11.63;;;18.90;99.90;;;;;;5021716;28;20053;-68
2021/07/06 04:19:10;;;;;;;13.88;10.65;;;19.00;99.90;;;;;;5020362;28;20068;-69
2021/07/06 04:21:37;;;;;;;12.73;11.43;;;19.00;99.90;;;;;;5021380;28;20107;-70
2021/07/06 04:24:04;;;;;;;10.82;9.82;;;19.00;99.90;;;;;;5017281;28;20073;-71
2021/07/06 04:26:31;;;;;;;11.48;10.40;;;19.00;99.90;;;;;;5022474;28;20134;-69
2021/07/06 04:28:58;;;;;;;11.65;10.65;;;19.10;99.90;;;;;;5021370;28;20069;-71
2021/07/06 04:31:25;;;;;;;10.75;9.57;;;19.10;99.90;;;;;;5042642;28;20045;-68
2021/07/06 04:33:52;;;;;;;11.13;10.23;;;19.20;99.90;;;;;;5015175;28;20451;-69
2021/07/06 04:36:19;;;;;;;11.55;10.48;;;19.30;99.90;;;;;;5022563;28;20052;-68
2021/07/06 04:38:46;;;;;;;12.98;11.70;;;19.30;99.90;;;;;;5022333;28;20081;-72
2021/07/06 04:41:13;;;;;;;11.35;10.35;;;19.40;99.90;;;;;;5022397;28;20091;-69
2021/07/06 04:43:40;;;;;;;10.05;8.77;;;19.40;99.90;;;;;;5021153;28;20081;-68
2021/07/06 04:46:07;;;;;;;10.68;9.68;;;19.40;99.90;;;;;;5020944;28;20116;-70
2021/07/06 04:48:34;;;;;;;11.52;10.43;;;19.40;99.90;;;;;;5021010;28;20045;-71
2021/07/06 04:51:06;;;;;;;11.13;10.02;;;19.40;99.90;;;;;;5021968;28;20037;-68
2021/07/06 04:53:34;;;;;;;10.25;9.35;;;19.50;99.90;;;;;;5019917;28;20045;-69
2021/07/06 04:56:01;;;;;;;12.55;11.43;;;19.50;99.90;;;;;;5020839;28;20111;-68
2021/07/06 04:58:29;;;;;;;11.20;10.18;;;19.50;99.90;;;;;;5021278;28;20045;-68
2021/07/06 05:00:57;;;;;;;10.70;9.63;;;19.50;99.90;;;;;;5021267;28;20427;-69
2021/07/06 05:03:24;;;;;;;11.18;10.07;;;19.50;99.90;;;;;;5019760;28;20149;-68
2021/07/06 05:05:51;;;;;;;12.40;9.88;;;19.50;99.90;;;;;;5020593;28;20041;-68
2021/07/06 05:08:18;;;;;;;10.57;9.57;;;19.50;99.90;;;;;;5019812;28;20042;-70
2021/07/06 05:10:46;;;;;;;9.57;8.68;;;19.60;99.90;;;;;;5023232;28;20420;-69
2021/07/06 05:13:14;;;;;;;10.48;9.45;;;19.60;99.90;;;;;;5024555;28;20053;-68
2021/07/06 05:15:41;;;;;;;8.82;8.02;;;19.60;99.90;;;;;;5022734;28;20076;-68
2021/07/06 05:18:09;;;;;;;9.63;8.82;;;19.60;99.90;;;;;;5022934;28;20577;-68
2021/07/06 05:20:37;;;;;;;10.05;9.00;;;19.70;99.90;;;;;;5025900;28;20045;-69
2021/07/06 05:23:04;;;;;;;9.38;8.45;;;19.70;99.90;;;;;;5023365;28;20046;-69
2021/07/06 05:25:31;;;;;;;9.10;8.30;;;19.70;99.90;;;;;;5024069;28;20049;-68
2021/07/06 05:27:58;;;;;;;10.05;9.13;;;19.80;99.90;;;;;;5023749;28;20590;-69
2021/07/06 05:30:25;;;;;;;10.05;8.82;;;19.80;99.90;;;;;;5026093;28;20037;-68
2021/07/06 05:32:52;;;;;;;9.68;8.45;;;19.80;99.90;;;;;;5024187;28;20110;-71
2021/07/06 05:35:19;;;;;;;9.60;8.70;;;19.90;99.90;;;;;;5025825;28;20064;-68
2021/07/06 05:37:47;;;;;;;10.18;9.27;;;19.90;99.90;;;;;;5022767;28;20072;-69
2021/07/06 05:40:15;;;;;;;10.15;9.25;;;19.90;99.90;;;;;;5025269;28;20502;-68
2021/07/06 05:42:43;;;;;;;10.20;9.20;;;20.00;99.90;;;;;;5023023;28;20107;-70
2021/07/06 05:45:11;;;;;;;10.18;9.18;;;20.00;99.90;;;;;;5025061;28;20041;-68
2021/07/06 05:47:40;;;;;;;11.07;10.10;;;20.10;99.90;;;;;;5025027;28;20078;-72
2021/07/06 05:50:13;;;;;;;10.95;9.88;;;20.10;99.90;;;;;;5022584;28;20107;-68
2021/07/06 05:52:41;;;;;;;9.30;8.40;;;20.10;99.90;;;;;;5020804;28;20058;-68
2021/07/06 05:55:09;;;;;;;10.07;9.15;;;20.20;99.90;;;;;;5024902;28;20069;-69
2021/07/06 05:57:39;;;;;;;11.15;9.40;;;20.20;99.90;;;;;;5023974;28;20721;-68
2021/07/06 06:00:08;;;;;;;;;;;20.20;99.90;;;;;;5024038;28;20057;-69
2021/07/06 06:02:35;;;;;;;9.40;8.05;;;20.20;99.90;;;;;;5023094;28;20409;-69
2021/07/06 06:05:18;;;;;;;9.68;8.78;;;20.30;99.90;;;;;;1829513;28;10003865;-69
2021/07/06 06:07:46;;;;;;;9.43;8.52;;;20.40;99.90;;;;;;3982171;28;10002099;-69
2021/07/06 06:10:14;;;;;;;9.63;8.73;;;20.50;99.90;;;;;;5023198;28;20049;-69
2021/07/06 06:12:41;;;;;;;8.85;8.05;;;20.60;99.90;;;;;;5021124;28;20539;-70
2021/07/06 06:15:09;;;;;;;9.85;8.85;;;20.60;99.90;;;;;;5025859;28;20053;-68
2021/07/06 06:17:37;;;;;;;8.50;7.57;;;20.80;99.90;;;;;;5022384;28;20057;-68
2021/07/06 06:20:06;;;;;;;8.52;7.72;;;20.80;99.90;;;;;;5023294;28;20049;-69
2021/07/06 06:22:33;;;;;;;8.88;7.60;;;20.90;99.90;;;;;;5019993;28;20068;-70
2021/07/06 06:25:08;;;;;;;10.02;6.90;;;20.90;99.90;;;;;;5024922;28;20100;-72
2021/07/06 06:27:35;;;;;;;7.70;6.90;;;21.00;99.90;;;;;;5022822;28;20111;-69
2021/07/06 06:30:04;;;;;;;7.53;6.70;;;21.00;99.90;;;;;;5023969;28;20045;-68
2021/07/06 06:32:31;;;;;;;9.25;7.18;;;21.00;99.90;;;;;;5022055;28;20111;-70
2021/07/06 06:34:58;;;;;;;8.55;7.38;;;21.10;99.90;;;;;;5025287;28;20061;-68
2021/07/06 06:37:25;;;;;;;7.35;6.68;;;21.10;99.90;;;;;;5021916;28;20041;-69
2021/07/06 06:39:52;;;;;;;7.10;6.50;;;21.10;99.90;;;;;;5023234;28;20068;-70
2021/07/06 06:42:19;;;;;;;9.80;7.63;;;21.30;99.90;;;;;;5022296;28;20412;-70
2021/07/06 06:44:46;;;;;;;9.00;6.75;;;21.20;99.90;;;;;;5024141;28;20045;-69
2021/07/06 06:47:14;;;;;;;7.30;6.70;;;21.20;99.90;;;;;;5023064;28;20049;-72
2021/07/06 06:49:41;;;;;;;7.63;6.93;;;21.30;99.90;;;;;;5024078;28;20415;-69
2021/07/06 06:52:08;;;;;;;7.43;6.63;;;21.30;99.90;;;;;;5021282;28;20691;-71
2021/07/06 06:54:35;;;;;;;6.93;6.43;;;21.40;99.90;;;;;;5023832;28;20296;-69
2021/07/06 06:57:02;;;;;;;6.78;6.18;;;21.40;99.90;;;;;;5023749;28;20075;-68
2021/07/06 06:59:29;;;;;;;6.50;5.90;;;21.40;99.90;;;;;;5025034;28;20119;-68
2021/07/06 07:04:42;;;;;;;6.15;5.68;;;21.50;99.90;;;;;;5024120;28;20122;-70
2021/07/06 07:07:09;;;;;;;6.82;6.20;;;21.50;99.90;;;;;;5020507;28;20115;-70
2021/07/06 07:09:36;;;;;;;8.20;5.78;;;21.40;99.90;;;;;;5024584;28;20061;-69
2021/07/06 07:12:04;;;;;;;8.88;7.32;;;21.40;99.90;;;;;;5019983;28;20053;-69
2021/07/06 07:14:31;;;;;;;7.63;6.63;;;21.30;99.90;;;;;;5022672;28;20042;-68
2021/07/06 07:16:58;;;;;;;8.00;7.30;;;21.20;99.90;;;;;;5020919;28;20045;-70
2021/07/06 07:19:25;;;;;;;6.22;5.70;;;21.20;99.90;;;;;;5024071;28;20153;-69
2021/07/06 07:22:01;;;;;;;7.10;6.50;;;21.20;99.90;;;;;;5019885;28;20053;-68
2021/07/06 07:24:29;;;;;;;7.82;6.55;;;21.20;99.90;;;;;;5023980;28;20046;-68
2021/07/06 07:26:56;;;;;;;8.07;7.28;;;21.30;99.90;;;;;;5020419;28;20049;-69
2021/07/06 07:29:24;;;;;;;8.02;7.22;;;21.40;99.90;;;;;;5024370;28;20085;-68
2021/07/06 07:31:52;;;;;;;7.13;6.53;;;21.50;99.90;;;;;;5019984;28;20057;-69
2021/07/06 07:34:19;;;;;;;7.60;6.82;;;21.50;99.90;;;;;;5024285;28;20443;-71
2021/07/06 07:36:47;;;;;;;9.45;6.93;;;21.50;99.90;;;;;;5020326;28;20041;-72
2021/07/06 07:39:14;;;;;;;8.10;7.32;;;21.60;99.90;;;;;;5023539;28;20063;-69
2021/07/06 07:41:41;;;;;;;6.63;6.05;;;21.60;99.90;;;;;;5019676;28;20049;-68
2021/07/06 07:44:09;;;;;;;6.25;5.75;;;21.80;99.90;;;;;;5021347;28;20049;-69
2021/07/06 07:46:36;;;;;;;6.55;6.00;;;22.00;99.90;;;;;;5022129;28;20122;-70
2021/07/06 07:49:03;;;;;;;5.97;5.47;;;22.10;99.90;;;;;;5023242;28;20046;-70
2021/07/06 07:51:30;;;;;;;5.15;4.60;;;22.20;99.90;;;;;;5018067;28;20456;-70
2021/07/06 07:53:57;;;;;;;4.78;4.38;;;22.20;99.90;;;;;;5037495;28;20053;-68
2021/07/06 07:56:24;;;;;;;5.32;4.82;;;22.30;99.90;;;;;;5020669;28;20057;-70
2021/07/06 07:58:52;;;;;;;7.22;5.32;;;22.40;99.90;;;;;;5023282;28;20037;-68
2021/07/06 08:01:19;;;;;;;4.72;4.13;;;22.50;99.90;;;;;;5021081;28;20045;-70
2021/07/06 08:03:46;;;;;;;8.63;4.80;;;22.50;99.90;;;;;;5012769;28;20099;-72
2021/07/06 08:06:13;;;;;;;5.50;4.93;;;22.60;99.90;;;;;;5034330;28;20049;-71
2021/07/06 08:08:41;;;;;;;5.70;3.80;;;22.80;99.90;;;;;;5012674;28;20111;-68
2021/07/06 08:11:08;;;;;;;6.88;5.03;;;22.90;99.90;;;;;;5019446;28;20187;-69
2021/07/06 08:13:35;;;;;;;4.80;4.40;;;23.00;99.90;;;;;;5023351;28;20079;-71
2021/07/06 08:16:02;;;;;;;4.32;3.83;;;23.00;99.90;;;;;;5019709;28;20395;-68
2021/07/06 08:18:29;;;;;;;5.80;4.05;;;23.00;99.90;;;;;;5023136;28;20562;-70
2021/07/06 08:20:57;;;;;;;4.68;4.25;;;22.90;99.90;;;;;;5020765;28;20076;-69
2021/07/06 08:23:24;;;;;;;5.10;3.95;;;22.90;99.90;;;;;;5022640;28;20045;-67
2021/07/06 08:25:51;;;;;;;6.03;3.15;;;23.00;99.90;;;;;;5020140;28;20903;-68
2021/07/06 08:28:18;;;;;;;3.42;3.13;;;23.00;99.90;;;;;;5023245;28;20045;-68
2021/07/06 08:30:46;;;;;;;4.28;2.47;;;23.20;99.90;;;;;;5020474;28;20045;-69
2021/07/06 08:33:13;;;;;;;2.67;2.47;;;23.20;99.90;;;;;;5022786;28;20458;-68
2021/07/06 08:35:41;;;;;;;5.30;3.45;;;23.30;99.90;;;;;;5020956;28;20072;-70
2021/07/06 08:38:08;;;;;;;3.95;3.38;;;23.40;99.90;;;;;;5020088;28;20769;-68
2021/07/06 08:40:35;;;;;;;4.20;3.90;;;23.40;99.90;;;;;;5019975;28;20045;-68
2021/07/06 08:43:03;;;;;;;4.05;3.17;;;23.40;99.90;;;;;;5021064;28;20701;-69
2021/07/06 08:45:31;;;;;;;4.85;3.00;;;23.40;99.90;;;;;;5020224;28;20055;-69
2021/07/06 08:47:59;;;;;;;5.00;3.70;;;23.40;99.90;;;;;;5020847;28;20046;-70
2021/07/06 08:50:27;;;;;;;5.65;3.47;;;23.50;99.90;;;;;;5020847;28;20045;-68
2021/07/06 08:52:54;;;;;;;3.05;2.75;;;23.50;99.90;;;;;;5022167;28;20050;-70
2021/07/06 08:55:22;;;;;;;5.65;3.38;;;23.70;99.90;;;;;;5020161;28;20054;-67
2021/07/06 08:57:52;;;;;;;3.67;3.38;;;23.80;99.90;;;;;;5020534;28;20056;-70
2021/07/06 09:00:19;;;;;;;;;;;23.80;99.90;;;;;;5021030;28;20078;-68
2021/07/06 09:03:03;;;;;;;4.35;2.90;;;23.90;99.90;;;;;;5021013;28;20028;-69
2021/07/06 09:05:32;;;;;;;9.00;3.60;;;24.00;99.90;;;;;;5022698;28;20128;-68
2021/07/06 09:08:00;;;;;;;3.45;3.15;;;24.00;99.90;;;;;;5018537;28;20124;-68
2021/07/06 09:10:34;;;;;;;3.33;3.03;;;24.00;99.90;;;;;;5022885;28;20103;-67
2021/07/06 09:13:02;;;;;;;3.35;3.05;;;24.10;99.90;;;;;;5019159;28;20045;-68
2021/07/06 09:15:31;;;;;;;3.30;3.00;;;24.10;99.90;;;;;;5022791;28;20045;-68
2021/07/06 09:18:06;;;;;;;3.72;3.38;;;24.10;99.90;;;;;;5019158;28;20045;-69
2021/07/06 09:20:33;;;;;;;3.70;3.40;;;24.10;99.90;;;;;;5022222;28;20403;-67
2021/07/06 09:23:24;;;;;;;3.38;2.88;;;24.10;99.90;;;;;;5019992;28;20073;-69
2021/07/06 09:26:09;;;;;;;;;;;24.10;99.90;;;;;;5021292;28;20123;-68
2021/07/06 09:28:48;;;;;;;11.98;2.90;;;24.20;99.90;;;;;;5021919;28;19921;-68
2021/07/06 09:31:27;;;;;;;6.80;3.45;;;24.30;99.90;;;;;;5020882;28;20054;-70
2021/07/06 09:33:57;;;;;;;3.08;2.78;;;24.20;99.90;;;;;;5018787;28;20046;-70
2021/07/06 09:36:25;;;;;;;5.60;3.85;;;24.30;99.90;;;;;;5020060;28;20041;-68
2021/07/06 09:39:12;;;;;;;3.38;2.83;;;24.40;99.90;;;;;;5021258;28;20073;-67
2021/07/06 09:41:41;;;;;;;3.50;3.20;;;24.40;99.90;;;;;;5020780;28;20037;-71
2021/07/06 09:44:25;;;;;;;4.28;3.08;;;24.40;99.90;;;;;;5020686;28;20559;-68
2021/07/06 09:47:03;;;;;;;3.92;2.90;;;24.40;99.90;;;;;;5015122;28;20045;-67
2021/07/06 09:49:42;;;;;;;4.43;2.72;;;24.50;99.90;;;;;;5022255;28;20042;-69
2021/07/06 09:52:20;;;;;;;3.17;2.60;;;24.50;99.90;;;;;;5018031;28;20061;-67
2021/07/06 09:54:52;;;;;;;4.15;3.30;;;24.50;99.90;;;;;;5022409;28;20122;-68
2021/07/06 09:57:32;;;;;;;5.72;3.63;;;24.60;99.90;;;;;;5021794;28;20037;-68
2021/07/06 10:00:05;;;;;;;4.90;4.47;;;24.50;99.90;;;;;;5024560;28;20596;-69
2021/07/06 10:02:45;;;;;;;3.45;3.15;;;24.30;99.90;;;;;;5023110;28;20563;-68
2021/07/06 10:05:20;;;;;;;4.80;3.97;;;24.40;99.90;;;;;;5026424;28;20118;-68
2021/07/06 10:07:47;;;;;;;7.47;3.92;;;24.60;99.90;;;;;;5021866;28;20068;-71
2021/07/06 10:10:19;;;;;;;5.13;2.95;;;24.70;99.90;;;;;;5025902;28;20049;-69
2021/07/06 10:12:48;;;;;;;4.45;3.47;;;24.80;99.90;;;;;;5022776;28;20045;-68
2021/07/06 10:15:18;;;;;;;4.57;3.50;;;24.90;99.90;;;;;;5023610;28;20103;-69
2021/07/06 10:17:51;;;;;;;4.63;4.28;;;24.90;99.90;;;;;;5020542;28;20419;-68
2021/07/06 10:20:27;;;;;;;4.70;3.00;;;24.80;99.90;;;;;;5026023;28;20049;-67
2021/07/06 10:22:58;;;;;;;4.25;3.95;;;24.80;99.90;;;;;;5021321;28;20096;-69
2021/07/06 10:25:26;;;;;;;;;;;24.90;99.90;;;;;;5026227;28;20053;-69
2021/07/06 10:27:56;;;;;;;4.82;3.63;;;24.80;99.90;;;;;;5020454;28;20003;-69
2021/07/06 10:30:29;;;;;;;4.05;3.72;;;24.70;99.90;;;;;;5025335;28;20251;-70
2021/07/06 10:32:58;;;;;;;4.68;4.28;;;24.70;99.90;;;;;;5021818;28;20037;-69
2021/07/06 10:35:37;;;;;;;4.13;3.35;;;24.50;99.90;;;;;;5025248;28;20053;-67
2021/07/06 10:38:26;;;;;;;5.43;3.67;;;24.60;99.90;;;;;;5021418;28;20034;-71
2021/07/06 10:40:58;;;;;;;4.93;4.00;;;24.70;99.90;;;;;;5023735;28;20387;-69
2021/07/06 10:43:50;;;;;;;4.20;3.80;;;24.80;99.90;;;;;;5023545;28;20550;-67
2021/07/06 10:46:20;;;;;;;4.63;4.18;;;24.90;99.90;;;;;;5018949;28;20053;-67
2021/07/06 10:49:06;;;;;;;;;;;24.80;99.90;;;;;;5022335;28;20150;-69
2021/07/06 10:51:33;;;;;;;5.57;4.53;;;24.50;99.90;;;;;;5022504;28;20638;-67
2021/07/06 10:54:10;;;;;;;5.00;4.47;;;24.50;99.90;;;;;;5023309;28;20136;-68
2021/07/06 10:56:43;;;;;;;3.70;3.35;;;24.60;99.90;;;;;;5022480;28;20064;-67
2021/07/06 10:59:26;;;;;;;4.28;3.97;;;24.70;99.90;;;;;;5024473;28;20128;-67
2021/07/06 11:02:21;;;;;;;4.82;3.63;;;24.80;99.90;;;;;;5019716;28;20115;-69
2021/07/06 11:04:51;;;;;;;4.40;3.90;;;24.90;99.90;;;;;;5023375;28;20876;-69
2021/07/06 11:07:30;;;;;;;5.22;4.15;;;24.80;99.90;;;;;;5019809;28;20042;-69
2021/07/06 11:09:57;;;;;;;3.97;3.28;;;24.80;99.90;;;;;;5022873;28;20168;-69
2021/07/06 11:12:29;;;;;;;3.75;3.45;;;24.80;99.90;;;;;;5023707;28;20041;-70
2021/07/06 11:14:59;;;;;;;5.20;3.60;;;24.70;99.90;;;;;;5023836;28;20049;-68
2021/07/06 11:17:33;;;;;;;4.20;3.90;;;24.70;99.90;;;;;;5021776;28;20055;-67
2021/07/06 11:20:02;;;;;;;4.65;3.88;;;24.60;99.90;;;;;;5017463;28;20045;-68
2021/07/06 11:22:40;;;;;;;4.15;3.67;;;24.60;99.90;;;;;;5021241;28;20072;-70
2021/07/06 11:25:19;;;;;;;3.63;3.33;;;24.60;99.90;;;;;;5021882;28;20133;-68
2021/07/06 11:28:26;;;;;;;3.17;2.78;;;24.60;99.90;;;;;;5021090;28;20464;-69
2021/07/06 11:30:54;;;;;;;3.22;2.92;;;24.80;99.90;;;;;;5022694;28;20532;-68
2021/07/06 11:33:25;;;;;;;5.28;3.75;;;24.70;99.90;;;;;;5023290;28;20042;-69
2021/07/06 11:35:58;;;;;;;4.05;3.53;;;24.60;99.90;;;;;;5021024;28;20108;-70
2021/07/06 11:38:42;;;;;;;4.65;3.45;;;24.80;99.90;;;;;;5022846;28;20056;-67
2021/07/06 11:41:11;;;;;;;3.83;3.53;;;24.60;99.90;;;;;;5022451;28;20511;-70
2021/07/06 11:43:40;;;;;;;3.80;3.22;;;24.40;99.90;;;;;;5023857;28;20076;-70
2021/07/06 11:46:09;;;;;;;3.70;3.38;;;24.60;99.90;;;;;;5019677;28;20049;-70
2021/07/06 11:48:39;;;;;;;4.25;3.78;;;24.40;99.90;;;;;;5023113;28;20064;-69
2021/07/06 11:51:08;;;;;;;4.28;3.88;;;24.30;99.90;;;;;;5021514;28;20045;-69
2021/07/06 11:53:41;;;;;;;4.47;3.58;;;24.20;99.90;;;;;;5023391;28;20067;-68
2021/07/06 11:56:10;;;;;;;4.82;3.97;;;24.20;99.90;;;;;;5019913;28;20484;-70
2021/07/06 11:58:38;;;;;;;4.88;4.03;;;24.40;99.90;;;;;;5022529;28;20049;-70
2021/07/06 12:01:10;;;;;;;6.72;4.07;;;24.60;99.90;;;;;;5017468;28;20037;-68
2021/07/06 12:03:40;;;;;;;4.50;3.35;;;24.50;99.90;;;;;;5022957;28;20054;-72
2021/07/06 12:06:11;;;;;;;4.07;3.78;;;24.70;99.90;;;;;;5020411;28;20138;-68
2021/07/06 12:08:39;;;;;;;3.35;2.33;;;24.80;99.90;;;;;;5023296;28;20385;-70
2021/07/06 12:11:11;;;;;;;4.85;4.15;;;25.00;99.90;;;;;;5022597;28;20046;-69
2021/07/06 12:13:40;;;;;;;6.65;3.35;;;25.00;99.90;;;;;;5022848;28;20108;-72
2021/07/06 12:16:15;;;;;;;6.10;5.50;;;25.00;99.90;;;;;;5019844;28;20072;-70
2021/07/06 12:18:58;;;;;;;3.97;3.60;;;25.20;99.90;;;;;;5023121;28;20041;-71
2021/07/06 12:21:34;;;;;;;3.45;3.15;;;25.10;99.90;;;;;;5020082;28;20053;-69
2021/07/06 12:24:12;;;;;;;3.30;3.10;;;25.10;99.90;;;;;;5021433;28;20053;-68
2021/07/06 12:26:40;;;;;;;3.85;2.97;;;24.90;99.90;;;;;;5020692;28;20130;-73
2021/07/06 12:29:11;;;;;;;2.90;2.70;;;24.90;99.90;;;;;;5023119;28;20609;-68
2021/07/06 12:31:39;;;;;;;3.38;3.15;;;24.80;99.90;;;;;;5020482;28;20467;-69
2021/07/06 12:34:13;;;;;;;2.53;2.33;;;24.70;99.90;;;;;;5016981;28;20049;-68
2021/07/06 12:36:58;;;;;;;3.38;3.08;;;24.60;99.90;;;;;;5019256;28;20057;-69
2021/07/06 12:39:37;;;;;;;2.42;2.22;;;24.80;99.90;;;;;;5023876;28;20045;-68
2021/07/06 12:42:14;;;;;;;3.78;3.05;;;25.20;99.90;;;;;;5021179;28;20128;-68
2021/07/06 12:44:44;;;;;;;6.40;3.58;;;25.40;99.90;;;;;;5017636;28;20041;-68
2021/07/06 12:47:32;;;;;;;3.17;2.88;;;25.50;99.90;;;;;;5022608;28;20049;-69
2021/07/06 12:50:00;;;;;;;3.10;2.90;;;25.70;99.90;;;;;;5019887;28;20049;-69
2021/07/06 12:52:38;;;;;;;3.75;3.25;;;25.70;99.90;;;;;;5021714;28;20049;-67
2021/07/06 12:55:08;;;;;;;3.67;3.38;;;25.70;99.90;;;;;;5020923;28;20128;-68
2021/07/06 12:57:35;;;;;;;3.70;3.40;;;25.70;99.90;;;;;;5022262;28;20042;-69